createdAt,value
2022-08-07T00:00:25.405Z,58.74
2022-08-07T00:02:53.697Z,58.73
2022-08-07T00:05:20.768Z,58.79
2022-08-07T00:07:59.730Z,58.69
2022-08-07T00:10:31.083Z,59.30
2022-08-07T00:13:23.562Z,59.26
2022-08-07T00:15:51.844Z,58.94
2022-08-07T00:18:24.351Z,59.19
2022-08-07T00:20:54.682Z,59.19
2022-08-07T00:23:21.660Z,58.84
2022-08-07T00:25:58.922Z,59.18
2022-08-07T00:28:33.673Z,59.17
2022-08-07T00:31:12.438Z,59.00
2022-08-07T00:33:40.345Z,59.17
2022-08-07T00:36:08.472Z,59.71
2022-08-07T00:38:36.744Z,59.40
2022-08-07T00:41:09.910Z,59.54
2022-08-07T00:44:01.181Z,59.95
2022-08-07T00:46:30.005Z,59.47
2022-08-07T00:49:02.178Z,59.59
2022-08-07T00:51:57.403Z,60.09
2022-08-07T00:54:16.731Z,59.81
2022-08-07T00:56:49.555Z,59.90
2022-08-07T00:59:17.334Z,60.17
2022-08-07T01:01:48.399Z,59.94
2022-08-07T01:04:21.682Z,60.44
2022-08-07T01:06:51.464Z,60.16
2022-08-07T01:10:03.860Z,60.26
2022-08-07T01:12:29.057Z,60.28
2022-08-07T01:14:57.130Z,59.87
2022-08-07T01:17:30.164Z,59.88
2022-08-07T01:20:08.181Z,60.50
2022-08-07T01:22:37.855Z,60.54
2022-08-07T01:25:53.997Z,60.30
2022-08-07T01:28:03.621Z,60.12
2022-08-07T01:30:32.290Z,60.36
2022-08-07T01:32:59.319Z,60.14
2022-08-07T01:35:36.871Z,60.23
2022-08-07T01:38:24.846Z,60.37
2022-08-07T01:41:02.598Z,60.64
2022-08-07T01:43:38.048Z,60.45
2022-08-07T01:46:08.386Z,60.51
2022-08-07T01:48:46.577Z,60.82
2022-08-07T01:52:02.706Z,60.72
2022-08-07T01:54:19.267Z,60.51
2022-08-07T01:57:08.279Z,60.54
2022-08-07T01:59:43.762Z,60.83
2022-08-07T02:03:12.355Z,60.99
2022-08-07T02:05:43.394Z,61.04
2022-08-07T02:08:20.587Z,61.50
2022-08-07T02:10:55.275Z,60.70
2022-08-07T02:13:57.218Z,61.53
2022-08-07T02:16:19.911Z,61.26
2022-08-07T02:18:55.964Z,61.13
2022-08-07T02:21:24.930Z,61.59
2022-08-07T02:23:53.257Z,61.74
2022-08-07T02:26:33.885Z,61.67
2022-08-07T02:29:07.529Z,61.63
2022-08-07T02:31:41.926Z,61.32
2022-08-07T02:34:11.181Z,61.39
2022-08-07T02:36:49.488Z,61.72
2022-08-07T02:39:42.431Z,61.49
2022-08-07T02:42:10.334Z,61.80
2022-08-07T02:44:48.130Z,61.67
2022-08-07T02:47:19.747Z,61.53
2022-08-07T02:49:58.701Z,61.84
2022-08-07T02:52:34.361Z,61.62
2022-08-07T02:55:41.855Z,62.09
2022-08-07T02:58:10.398Z,61.71
2022-08-07T03:00:41.631Z,62.18
2022-08-07T03:03:21.159Z,62.12
2022-08-07T03:05:53.836Z,61.78
2022-08-07T03:08:26.820Z,61.98
2022-08-07T03:10:58.152Z,61.88
2022-08-07T03:13:38.746Z,62.38
2022-08-07T03:16:16.779Z,61.98
2022-08-07T03:18:50.178Z,62.07
2022-08-07T03:21:19.078Z,62.18
2022-08-07T03:24:18.452Z,62.38
2022-08-07T03:26:36.007Z,61.95
2022-08-07T03:29:15.184Z,62.25
2022-08-07T03:31:49.839Z,62.14
2022-08-07T03:34:22.134Z,62.27
2022-08-07T03:36:53.638Z,62.61
2022-08-07T03:39:59.005Z,62.05
2022-08-07T03:42:11.825Z,62.24
2022-08-07T03:44:39.960Z,62.48
2022-08-07T03:47:13.044Z,62.68
2022-08-07T03:49:40.558Z,61.99
2022-08-07T03:52:22.373Z,61.98
2022-08-07T03:54:55.275Z,61.94
2022-08-07T03:58:33.677Z,62.15
2022-08-07T04:00:14.810Z,62.23
2022-08-07T04:02:49.366Z,62.40
2022-08-07T04:05:39.709Z,62.08
2022-08-07T04:08:15.989Z,61.88
2022-08-07T04:10:54.260Z,62.43
2022-08-07T04:14:10.970Z,61.90
2022-08-07T04:16:31.472Z,61.98
2022-08-07T04:19:04.307Z,61.87
2022-08-07T04:21:39.652Z,62.33
2022-08-07T04:24:34.308Z,62.60
2022-08-07T04:27:25.442Z,62.00
2022-08-07T04:30:02.261Z,62.48
2022-08-07T04:32:44.942Z,62.91
2022-08-07T04:35:16.346Z,62.80
2022-08-07T04:38:04.655Z,63.11
2022-08-07T04:40:32.705Z,63.41
2022-08-07T04:43:01.964Z,63.07
2022-08-07T04:46:00.931Z,63.64
2022-08-07T04:48:59.326Z,63.46
2022-08-07T04:51:32.629Z,63.14
2022-08-07T04:54:22.656Z,63.34
2022-08-07T04:58:10.520Z,63.46
2022-08-07T05:00:11.430Z,63.49
2022-08-07T05:03:31.163Z,64.31
2022-08-07T05:06:19.619Z,64.16
2022-08-07T05:09:02.183Z,64.57
2022-08-07T05:11:57.578Z,64.89
2022-08-07T05:14:54.958Z,65.17
2022-08-07T05:17:52.577Z,65.66
2022-08-07T05:20:24.948Z,66.35
2022-08-07T05:22:57.975Z,67.00
2022-08-07T05:25:54.477Z,67.30
2022-08-07T05:28:22.656Z,66.75
2022-08-07T05:30:56.788Z,67.30
2022-08-07T05:33:28.313Z,67.40
2022-08-07T05:35:56.171Z,67.00
2022-08-07T05:39:00.263Z,67.81
2022-08-07T05:41:15.871Z,67.72
2022-08-07T05:44:08.173Z,67.98
2022-08-07T05:46:38.107Z,67.37
2022-08-07T05:49:11.790Z,67.92
2022-08-07T05:51:43.499Z,67.98
2022-08-07T05:54:31.355Z,67.93
2022-08-07T05:57:04.453Z,67.87
2022-08-07T05:59:46.614Z,68.49
2022-08-07T06:02:29.085Z,68.35
2022-08-07T06:05:03.470Z,68.41
2022-08-07T06:08:13.569Z,68.61
2022-08-07T06:10:18.926Z,68.15
2022-08-07T06:12:48.540Z,67.89
2022-08-07T06:15:19.993Z,67.88
2022-08-07T06:17:53.480Z,67.66
2022-08-07T06:20:50.057Z,67.68
2022-08-07T06:23:46.019Z,67.09
2022-08-07T06:25:59.807Z,67.42
2022-08-07T06:28:27.198Z,66.89
2022-08-07T06:30:56.544Z,66.98
2022-08-07T06:33:26.605Z,66.92
2022-08-07T06:36:11.821Z,66.64
2022-08-07T06:38:51.388Z,66.53
2022-08-07T06:42:02.477Z,65.83
2022-08-07T06:44:46.006Z,65.64
2022-08-07T06:47:18.819Z,65.04
2022-08-07T06:49:52.172Z,64.39
2022-08-07T06:52:35.590Z,63.90
2022-08-07T06:55:31.489Z,64.03
2022-08-07T06:58:04.252Z,62.44
2022-08-07T07:00:38.141Z,62.74
2022-08-07T07:03:08.732Z,62.27
2022-08-07T07:06:02.385Z,61.10
2022-08-07T07:08:27.283Z,60.53
2022-08-07T07:10:56.889Z,59.38
2022-08-07T07:13:56.721Z,60.00
2022-08-07T07:16:33.829Z,59.52
2022-08-07T07:19:54.463Z,59.63
2022-08-07T07:22:05.071Z,58.78
2022-08-07T07:24:43.127Z,58.53
2022-08-07T07:27:35.592Z,58.58
2022-08-07T07:30:20.800Z,58.28
2022-08-07T07:33:01.404Z,58.15
2022-08-07T07:35:33.494Z,58.35
2022-08-07T07:38:04.862Z,58.44
2022-08-07T07:40:34.421Z,57.87
2022-08-07T07:43:15.476Z,58.14
2022-08-07T07:46:38.264Z,57.16
2022-08-07T07:48:36.506Z,57.80
2022-08-07T07:51:08.116Z,56.86
2022-08-07T07:53:50.404Z,57.08
2022-08-07T07:56:30.435Z,56.29
2022-08-07T07:59:00.460Z,56.18
2022-08-07T08:02:03.732Z,56.36
2022-08-07T08:04:18.380Z,55.43
2022-08-07T08:06:52.273Z,55.56
2022-08-07T08:09:23.486Z,55.23
2022-08-07T08:12:02.886Z,53.90
2022-08-07T08:14:36.379Z,55.38
2022-08-07T08:17:41.194Z,54.90
2022-08-07T08:20:17.643Z,54.85
2022-08-07T08:23:08.181Z,54.31
2022-08-07T08:25:56.569Z,54.43
2022-08-07T08:28:37.901Z,53.62
2022-08-07T08:31:15.626Z,53.22
2022-08-07T08:33:49.750Z,49.40
2022-08-07T08:36:29.641Z,49.73
2022-08-07T08:38:59.860Z,49.83
2022-08-07T08:41:57.919Z,48.53
2022-08-07T08:44:44.262Z,48.27
2022-08-07T08:47:34.389Z,47.43
2022-08-07T08:50:35.285Z,47.80
2022-08-07T08:53:19.693Z,48.08
2022-08-07T08:56:01.295Z,46.87
2022-08-07T08:58:59.754Z,45.29
2022-08-07T09:01:58.457Z,46.12
2022-08-07T09:04:44.523Z,46.92
2022-08-07T09:07:23.224Z,47.33
2022-08-07T09:10:14.461Z,47.46
2022-08-07T09:12:53.354Z,46.83
2022-08-07T09:16:25.229Z,46.56
2022-08-07T09:19:03.462Z,46.59
2022-08-07T09:22:10.294Z,46.07
2022-08-07T09:24:59.417Z,44.40
2022-08-07T09:27:59.462Z,44.03
2022-08-07T09:30:35.014Z,45.13
2022-08-07T09:33:16.558Z,45.61
2022-08-07T09:36:11.743Z,45.06
2022-08-07T09:38:57.750Z,45.94
2022-08-07T09:42:03.023Z,44.08
2022-08-07T09:47:26.311Z,44.06
2022-08-07T09:48:08.810Z,44.86
2022-08-07T09:50:55.864Z,45.07
2022-08-07T09:53:26.039Z,44.89
2022-08-07T09:56:46.991Z,44.26
2022-08-07T09:59:44.670Z,44.10
2022-08-07T10:02:24.563Z,43.96
2022-08-07T10:05:29.721Z,44.76
2022-08-07T10:08:35.197Z,44.31
2022-08-07T10:12:00.135Z,44.61
2022-08-07T10:14:30.483Z,44.16
2022-08-07T10:17:22.646Z,43.58
2022-08-07T10:20:31.679Z,43.19
2022-08-07T10:23:17.073Z,42.96
2022-08-07T10:26:33.344Z,42.34
2022-08-07T10:29:34.950Z,42.71
2022-08-07T10:32:36.812Z,42.34
2022-08-07T10:35:55.699Z,41.57
2022-08-07T10:38:35.955Z,41.45
2022-08-07T10:41:46.605Z,40.58
2022-08-07T10:44:33.814Z,39.52
2022-08-07T10:47:18.767Z,37.53
2022-08-07T10:50:10.762Z,35.52
2022-08-07T10:52:58.834Z,33.21
2022-08-07T10:56:02.154Z,32.87
2022-08-07T10:58:59.433Z,27.59
2022-08-07T11:01:51.007Z,28.07
2022-08-07T11:05:00.080Z,23.41
2022-08-07T11:08:02.682Z,22.29
2022-08-07T11:10:52.294Z,24.24
2022-08-07T11:14:42.016Z,20.97
2022-08-07T11:17:07.389Z,20.21
2022-08-07T11:20:03.648Z,20.00
2022-08-07T11:22:49.006Z,20.84
2022-08-07T11:25:25.663Z,18.92
2022-08-07T11:28:04.287Z,19.08
2022-08-07T11:30:42.594Z,17.62
2022-08-07T11:33:59.393Z,18.02
2022-08-07T11:36:16.612Z,16.88
2022-08-07T11:39:19.721Z,19.34
2022-08-07T11:42:03.327Z,21.37
2022-08-07T11:44:51.962Z,24.30
2022-08-07T11:47:56.311Z,22.54
2022-08-07T11:50:44.238Z,24.03
2022-08-07T11:54:11.476Z,25.71
2022-08-07T11:56:59.232Z,27.64
2022-08-07T12:00:10.084Z,27.83
2022-08-07T12:02:55.583Z,29.91
2022-08-07T12:06:01.300Z,29.13
2022-08-07T12:08:52.627Z,29.66
2022-08-07T12:11:32.427Z,30.54
2022-08-07T12:14:08.509Z,31.53
2022-08-07T12:16:42.434Z,32.23
2022-08-07T12:20:03.311Z,32.97
2022-08-07T12:22:55.883Z,27.37
2022-08-07T12:26:23.344Z,24.91
2022-08-07T12:29:15.767Z,20.36
2022-08-07T12:32:03.813Z,20.50
2022-08-07T12:34:34.479Z,22.35
2022-08-07T12:37:08.768Z,22.23
2022-08-07T12:39:50.949Z,20.59
2022-08-07T12:42:27.189Z,20.64
2022-08-07T12:44:57.782Z,20.36
2022-08-07T12:48:13.222Z,20.11
2022-08-07T12:51:18.819Z,20.05
2022-08-07T12:54:02.714Z,20.68
2022-08-07T12:56:51.474Z,22.21
2022-08-07T12:59:30.497Z,23.19
2022-08-07T13:02:33.158Z,24.77
2022-08-07T13:06:04.755Z,26.12
2022-08-07T13:08:43.671Z,25.90
2022-08-07T13:12:02.742Z,26.05
2022-08-07T13:14:58.953Z,27.53
2022-08-07T13:17:42.718Z,27.33
2022-08-07T13:20:46.516Z,27.88
2022-08-07T13:24:01.751Z,29.24
2022-08-07T13:26:46.430Z,29.61
2022-08-07T13:29:52.302Z,29.37
2022-08-07T13:32:32.101Z,30.22
2022-08-07T13:35:08.410Z,30.74
2022-08-07T13:37:59.188Z,31.34
2022-08-07T13:40:46.843Z,31.60
2022-08-07T13:43:17.218Z,31.68
2022-08-07T13:46:11.286Z,31.64
2022-08-07T13:48:51.884Z,31.68
2022-08-07T13:51:28.180Z,30.64
2022-08-07T13:54:22.634Z,31.17
2022-08-07T13:56:59.458Z,31.07
2022-08-07T13:59:33.166Z,31.10
2022-08-07T14:02:14.996Z,31.07
2022-08-07T14:04:54.499Z,30.09
2022-08-07T14:07:24.402Z,29.52
2022-08-07T14:10:17.420Z,30.46
2022-08-07T14:12:58.515Z,31.31
2022-08-07T14:15:28.319Z,32.00
2022-08-07T14:18:24.238Z,31.91
2022-08-07T14:21:08.170Z,31.99
2022-08-07T14:24:01.855Z,31.92
2022-08-07T14:26:39.191Z,32.70
2022-08-07T14:30:06.395Z,31.79
2022-08-07T14:32:10.159Z,32.09
2022-08-07T14:34:46.200Z,32.48
2022-08-07T14:37:16.836Z,31.78
2022-08-07T14:40:16.469Z,32.25
2022-08-07T14:42:35.605Z,31.94
2022-08-07T14:45:25.483Z,32.03
2022-08-07T14:51:06.078Z,32.83
2022-08-07T14:56:33.199Z,32.78
2022-08-07T15:01:58.679Z,32.20
2022-08-07T15:04:26.139Z,32.77
2022-08-07T15:06:56.975Z,33.07
2022-08-07T15:09:57.608Z,32.66
2022-08-07T15:12:26.173Z,32.11
2022-08-07T15:15:09.117Z,32.53
2022-08-07T15:18:02.700Z,32.23
2022-08-07T15:20:38.568Z,33.07
2022-08-07T15:25:15.128Z,33.81
2022-08-07T15:31:57.647Z,33.97
2022-08-07T15:34:33.644Z,34.79
2022-08-07T15:37:06.854Z,33.40
2022-08-07T15:39:56.619Z,34.34
2022-08-07T15:42:47.845Z,35.05
2022-08-07T15:45:20.818Z,35.07
2022-08-07T15:48:13.000Z,35.48
2022-08-07T15:51:08.091Z,35.79
2022-08-07T15:53:52.183Z,35.67
2022-08-07T15:56:24.661Z,36.21
2022-08-07T15:58:59.350Z,36.80
2022-08-07T16:01:38.443Z,36.53
2022-08-07T16:04:15.300Z,36.00
2022-08-07T16:06:59.236Z,35.61
2022-08-07T16:09:42.211Z,35.99
2022-08-07T16:12:39.084Z,37.12
2022-08-07T16:15:55.209Z,37.32
2022-08-07T16:18:43.471Z,37.37
2022-08-07T16:22:19.244Z,37.20
2022-08-07T16:25:23.063Z,37.61
2022-08-07T16:29:18.359Z,37.91
2022-08-07T16:31:57.205Z,38.33
2022-08-07T16:34:45.356Z,38.17
2022-08-07T16:38:04.939Z,37.31
2022-08-07T16:40:34.304Z,37.74
2022-08-07T16:43:19.117Z,39.52
2022-08-07T16:50:26.593Z,37.87
2022-08-07T16:53:55.637Z,38.76
2022-08-07T16:56:25.871Z,38.52
2022-08-07T16:59:10.661Z,39.25
2022-08-07T17:01:56.669Z,39.33
2022-08-07T17:04:32.516Z,39.49
2022-08-07T17:07:08.072Z,39.09
2022-08-07T17:10:08.153Z,39.47
2022-08-07T17:12:47.491Z,39.60
2022-08-07T17:15:15.689Z,39.48
2022-08-07T17:17:48.535Z,39.79
2022-08-07T17:20:41.265Z,39.92
2022-08-07T17:23:31.990Z,39.52
2022-08-07T17:26:24.147Z,39.06
2022-08-07T17:30:14.721Z,39.15
2022-08-07T17:32:31.155Z,39.52
2022-08-07T17:35:50.002Z,39.61
2022-08-07T17:38:33.414Z,39.92
2022-08-07T17:42:02.296Z,40.30
2022-08-07T17:44:33.873Z,40.95
2022-08-07T17:47:16.922Z,40.68
2022-08-07T17:49:59.155Z,40.41
2022-08-07T17:52:31.427Z,40.62
2022-08-07T17:55:09.244Z,41.19
2022-08-07T17:58:13.547Z,41.17
2022-08-07T18:00:59.097Z,41.43
2022-08-07T18:04:04.537Z,41.94
2022-08-07T18:06:43.565Z,42.49
2022-08-07T18:09:18.844Z,42.41
2022-08-07T18:12:28.591Z,42.32
2022-08-07T18:15:08.636Z,42.80
2022-08-07T18:18:46.422Z,43.12
2022-08-07T18:21:06.522Z,43.52
2022-08-07T18:23:58.316Z,43.90
2022-08-07T18:26:38.566Z,44.49
2022-08-07T18:30:04.208Z,44.70
2022-08-07T18:32:39.240Z,44.78
2022-08-07T18:35:21.733Z,44.80
2022-08-07T18:38:57.602Z,44.75
2022-08-07T18:41:16.744Z,45.25
2022-08-07T18:43:48.965Z,45.40
2022-08-07T18:47:08.568Z,45.81
2022-08-07T18:50:30.760Z,45.54
2022-08-07T18:52:53.271Z,45.95
2022-08-07T18:55:57.325Z,46.02
2022-08-07T18:59:01.626Z,46.13
2022-08-07T19:02:18.291Z,46.34
2022-08-07T19:04:56.228Z,46.35
2022-08-07T19:07:59.296Z,46.60
2022-08-07T19:10:49.429Z,46.84
2022-08-07T19:13:37.761Z,46.83
2022-08-07T19:17:01.473Z,47.23
2022-08-07T19:19:41.169Z,47.57
2022-08-07T19:22:18.433Z,47.60
2022-08-07T19:24:58.506Z,47.66
2022-08-07T19:28:58.533Z,47.77
2022-08-07T19:31:05.817Z,47.94
2022-08-07T19:33:15.606Z,48.19
2022-08-07T19:35:53.599Z,48.22
2022-08-07T19:38:21.541Z,48.37
2022-08-07T19:40:51.843Z,48.52
2022-08-07T19:43:49.060Z,48.94
2022-08-07T19:46:10.927Z,49.18
2022-08-07T19:48:42.133Z,49.51
2022-08-07T19:51:19.366Z,49.84
2022-08-07T19:54:35.609Z,50.06
2022-08-07T19:57:52.006Z,50.23
2022-08-07T19:59:39.917Z,50.18
2022-08-07T20:02:19.739Z,50.37
2022-08-07T20:04:57.017Z,50.73
2022-08-07T20:07:47.135Z,50.10
2022-08-07T20:10:36.615Z,50.42
2022-08-07T20:13:22.687Z,50.79
2022-08-07T20:15:52.220Z,50.70
2022-08-07T20:18:32.780Z,51.31
2022-08-07T20:21:02.164Z,51.27
2022-08-07T20:23:41.069Z,51.82
2022-08-07T20:26:10.842Z,51.57
2022-08-07T20:28:40.029Z,52.13
2022-08-07T20:31:21.892Z,52.61
2022-08-07T20:33:56.463Z,52.56
2022-08-07T20:36:26.553Z,52.61
2022-08-07T20:39:00.810Z,52.56
2022-08-07T20:41:41.045Z,52.77
2022-08-07T20:44:12.465Z,52.94
2022-08-07T20:46:44.278Z,52.94
2022-08-07T20:49:57.799Z,53.17
2022-08-07T20:52:09.360Z,52.68
2022-08-07T20:54:53.292Z,51.82
2022-08-07T20:57:24.877Z,51.51
2022-08-07T21:00:06.971Z,51.06
2022-08-07T21:03:00.613Z,50.25
2022-08-07T21:05:51.517Z,50.66
2022-08-07T21:08:39.227Z,50.98
2022-08-07T21:11:14.459Z,51.13
2022-08-07T21:14:16.057Z,51.42
2022-08-07T21:16:56.286Z,51.69
2022-08-07T21:19:51.390Z,52.04
2022-08-07T21:22:25.590Z,52.46
2022-08-07T21:25:12.140Z,52.12
2022-08-07T21:27:47.450Z,52.93
2022-08-07T21:30:17.783Z,52.64
2022-08-07T21:33:11.611Z,52.72
2022-08-07T21:36:06.034Z,52.96
2022-08-07T21:39:46.507Z,52.99
2022-08-07T21:42:37.459Z,53.08
2022-08-07T21:45:01.348Z,53.48
2022-08-07T21:48:29.092Z,53.80
2022-08-07T21:51:19.465Z,53.69
2022-08-07T21:53:54.008Z,53.83
2022-08-07T21:56:57.967Z,54.24
2022-08-07T22:00:04.603Z,53.95
2022-08-07T22:02:44.853Z,54.18
2022-08-07T22:05:45.352Z,54.09
2022-08-07T22:08:12.279Z,54.39
2022-08-07T22:10:42.414Z,54.37
2022-08-07T22:13:14.057Z,54.40
2022-08-07T22:16:42.597Z,54.65
2022-08-07T22:18:52.656Z,54.72
2022-08-07T22:21:26.093Z,54.79
2022-08-07T22:24:17.581Z,54.98
2022-08-07T22:26:56.559Z,54.93
2022-08-07T22:29:33.992Z,55.29
2022-08-07T22:32:20.724Z,55.81
2022-08-07T22:34:54.149Z,55.69
2022-08-07T22:38:04.571Z,55.11
2022-08-07T22:40:54.887Z,55.78
2022-08-07T22:43:39.152Z,56.09
2022-08-07T22:47:02.620Z,56.05
2022-08-07T22:49:51.797Z,56.14
2022-08-07T22:52:39.628Z,56.40
2022-08-07T22:55:34.162Z,56.64
2022-08-07T22:58:33.786Z,56.70
2022-08-07T23:01:49.877Z,56.58
2022-08-07T23:04:58.090Z,56.74
2022-08-07T23:08:24.364Z,56.79
2022-08-07T23:11:10.275Z,57.09
2022-08-07T23:14:10.878Z,57.40
2022-08-07T23:17:03.243Z,57.30
2022-08-07T23:20:14.746Z,57.43
2022-08-07T23:23:01.659Z,57.50
2022-08-07T23:25:37.516Z,57.90
2022-08-07T23:28:31.105Z,57.83
2022-08-07T23:32:48.642Z,58.24
2022-08-07T23:35:07.370Z,58.13
2022-08-07T23:38:10.881Z,58.30
2022-08-07T23:40:52.974Z,58.29
2022-08-07T23:43:57.341Z,58.26
2022-08-07T23:47:03.667Z,58.49
2022-08-07T23:49:50.530Z,58.48
2022-08-07T23:53:06.777Z,58.78
2022-08-07T23:55:52.271Z,58.52
2022-08-07T23:58:55.048Z,58.89
